createdAt,value
2023-05-20T00:00:05.574Z,33.91
2023-05-20T00:01:05.613Z,33.90
2023-05-20T00:02:05.689Z,33.91
2023-05-20T00:03:05.758Z,33.87
2023-05-20T00:04:05.939Z,33.92
2023-05-20T00:05:05.841Z,33.91
2023-05-20T00:06:05.838Z,33.88
2023-05-20T00:07:05.912Z,33.91
2023-05-20T00:08:05.970Z,33.87
2023-05-20T00:09:06.012Z,33.90
2023-05-20T00:10:06.066Z,33.89
2023-05-20T00:11:06.082Z,33.94
2023-05-20T00:12:06.129Z,33.94
2023-05-20T00:13:06.188Z,33.92
2023-05-20T00:14:06.235Z,33.95
2023-05-20T00:15:06.292Z,33.92
2023-05-20T00:16:06.385Z,33.94
2023-05-20T00:17:06.375Z,33.94
2023-05-20T00:18:06.434Z,33.91
2023-05-20T00:19:06.490Z,33.94
2023-05-20T00:20:06.546Z,33.94
2023-05-20T00:21:06.577Z,33.96
2023-05-20T00:22:06.613Z,33.95
2023-05-20T00:23:06.686Z,33.94
2023-05-20T00:24:06.740Z,33.94
2023-05-20T00:25:06.772Z,33.93
2023-05-20T00:26:06.792Z,33.88
2023-05-20T00:27:06.866Z,33.96
2023-05-20T00:28:06.896Z,34.00
2023-05-20T00:29:06.972Z,33.97
2023-05-20T00:30:07.010Z,33.93
2023-05-20T00:31:07.032Z,33.90
2023-05-20T00:32:07.191Z,33.97
2023-05-20T00:33:07.194Z,33.93
2023-05-20T00:34:07.200Z,34.00
2023-05-20T00:35:07.289Z,33.94
2023-05-20T00:36:07.319Z,33.96
2023-05-20T00:37:07.369Z,33.94
2023-05-20T00:38:07.442Z,33.93
2023-05-20T00:39:07.487Z,33.96
2023-05-20T00:40:07.556Z,33.96
2023-05-20T00:41:07.626Z,33.97
2023-05-20T00:42:07.613Z,33.93
2023-05-20T00:43:07.688Z,33.97
2023-05-20T00:44:07.721Z,33.96
2023-05-20T00:45:07.803Z,33.92
2023-05-20T00:46:07.932Z,34.00
2023-05-20T00:47:07.867Z,33.96
2023-05-20T00:48:08.016Z,33.94
2023-05-20T00:49:08.017Z,33.97
2023-05-20T00:50:08.045Z,33.98
2023-05-20T00:51:08.083Z,34.00
2023-05-20T00:52:08.180Z,34.00
2023-05-20T00:53:08.235Z,34.01
2023-05-20T00:54:08.279Z,33.99
2023-05-20T00:55:08.329Z,33.97
2023-05-20T00:56:08.382Z,34.03
2023-05-20T00:57:08.424Z,34.01
2023-05-20T00:58:08.519Z,34.02
2023-05-20T00:59:08.529Z,34.05
2023-05-20T01:00:08.589Z,34.01
2023-05-20T01:01:08.679Z,34.03
2023-05-20T01:02:08.788Z,34.03
2023-05-20T01:03:08.885Z,34.00
2023-05-20T01:04:08.809Z,34.03
2023-05-20T01:05:08.857Z,34.03
2023-05-20T01:06:08.913Z,33.99
2023-05-20T01:07:09.014Z,34.03
2023-05-20T01:08:09.082Z,33.97
2023-05-20T01:09:09.165Z,34.00
2023-05-20T01:10:09.178Z,34.02
2023-05-20T01:11:09.235Z,34.01
2023-05-20T01:12:09.287Z,34.02
2023-05-20T01:13:09.375Z,34.01
2023-05-20T01:14:09.424Z,34.06
2023-05-20T01:15:09.500Z,33.99
2023-05-20T01:16:09.531Z,34.00
2023-05-20T01:17:09.582Z,34.03
2023-05-20T01:18:09.706Z,34.02
2023-05-20T01:19:09.707Z,34.02
2023-05-20T01:20:09.767Z,34.02
2023-05-20T01:21:09.826Z,34.04
2023-05-20T01:22:09.862Z,34.04
2023-05-20T01:23:09.926Z,34.04
2023-05-20T01:24:09.967Z,34.04
2023-05-20T01:25:10.023Z,34.03
2023-05-20T01:26:10.094Z,34.08
2023-05-20T01:27:10.146Z,34.03
2023-05-20T01:28:10.180Z,34.03
2023-05-20T01:29:10.264Z,34.03
2023-05-20T01:30:10.280Z,34.04
2023-05-20T01:31:10.396Z,34.03
2023-05-20T01:32:10.441Z,34.07
2023-05-20T01:33:10.501Z,34.01
2023-05-20T01:34:10.536Z,34.05
2023-05-20T01:35:10.570Z,34.05
2023-05-20T01:36:10.616Z,34.07
2023-05-20T01:37:10.673Z,34.04
2023-05-20T01:38:10.755Z,34.04
2023-05-20T01:39:10.842Z,34.03
2023-05-20T01:40:10.872Z,34.06
2023-05-20T01:41:10.910Z,34.01
2023-05-20T01:42:10.982Z,34.05
2023-05-20T01:43:11.056Z,34.04
2023-05-20T01:44:11.120Z,34.08
2023-05-20T01:45:11.190Z,34.09
2023-05-20T01:46:11.241Z,34.06
2023-05-20T01:47:11.312Z,34.03
2023-05-20T01:48:11.492Z,34.04
2023-05-20T01:49:11.410Z,34.08
2023-05-20T01:50:11.526Z,34.05
2023-05-20T01:51:11.529Z,34.07
2023-05-20T01:53:11.640Z,34.06
2023-05-20T01:54:12.582Z,34.05
2023-05-20T01:55:11.756Z,34.06
2023-05-20T01:56:11.839Z,34.05
2023-05-20T01:57:11.890Z,34.06
2023-05-20T01:58:11.941Z,34.07
2023-05-20T01:59:12.003Z,34.08
2023-05-20T02:00:12.090Z,34.09
2023-05-20T02:01:12.183Z,34.09
2023-05-20T02:02:12.160Z,34.07
2023-05-20T02:03:12.274Z,34.05
2023-05-20T02:04:12.323Z,34.05
2023-05-20T02:05:12.386Z,34.10
2023-05-20T02:06:12.502Z,34.09
2023-05-20T02:07:12.472Z,34.11
2023-05-20T02:08:12.544Z,34.11
2023-05-20T02:09:12.601Z,34.12
2023-05-20T02:10:12.654Z,34.10
2023-05-20T02:11:12.719Z,34.14
2023-05-20T02:12:12.786Z,34.13
2023-05-20T02:13:12.833Z,34.12
2023-05-20T02:14:12.905Z,34.11
2023-05-20T02:15:12.949Z,34.15
2023-05-20T02:16:13.063Z,34.15
2023-05-20T02:17:13.111Z,34.13
2023-05-20T02:18:13.167Z,34.15
2023-05-20T02:19:13.404Z,34.12
2023-05-20T02:20:13.296Z,34.14
2023-05-20T02:21:13.324Z,34.11
2023-05-20T02:22:13.387Z,34.16
2023-05-20T02:23:13.484Z,34.17
2023-05-20T02:24:13.518Z,34.14
2023-05-20T02:25:13.623Z,34.11
2023-05-20T02:26:13.657Z,34.14
2023-05-20T02:27:13.713Z,34.11
2023-05-20T02:28:13.767Z,34.14
2023-05-20T02:29:13.840Z,34.13
2023-05-20T02:30:13.882Z,34.14
2023-05-20T02:31:13.957Z,34.14
2023-05-20T02:32:14.044Z,34.12
2023-05-20T02:33:14.158Z,34.14
2023-05-20T02:34:14.140Z,34.17
2023-05-20T02:35:14.210Z,34.16
2023-05-20T02:36:14.246Z,34.14
2023-05-20T02:37:14.309Z,34.15
2023-05-20T02:38:14.396Z,34.21
2023-05-20T02:39:14.460Z,34.14
2023-05-20T02:40:14.505Z,34.14
2023-05-20T02:41:14.584Z,34.14
2023-05-20T02:42:14.654Z,34.16
2023-05-20T02:43:14.676Z,34.14
2023-05-20T02:44:14.745Z,34.15
2023-05-20T02:45:14.807Z,34.17
2023-05-20T02:46:14.969Z,34.18
2023-05-20T02:47:14.974Z,34.17
2023-05-20T02:48:14.987Z,34.16
2023-05-20T02:49:15.062Z,34.16
2023-05-20T02:50:15.126Z,34.19
2023-05-20T02:51:15.259Z,34.19
2023-05-20T02:52:15.205Z,34.16
2023-05-20T02:53:15.289Z,34.17
2023-05-20T02:54:15.348Z,34.22
2023-05-20T02:55:15.384Z,34.12
2023-05-20T02:56:15.451Z,34.19
2023-05-20T02:57:15.536Z,34.16
2023-05-20T02:58:15.643Z,34.20
2023-05-20T02:59:15.681Z,34.20
2023-05-20T03:00:15.745Z,34.20
2023-05-20T03:01:15.774Z,34.17
2023-05-20T03:02:15.830Z,34.16
2023-05-20T03:03:15.906Z,34.22
2023-05-20T03:04:15.987Z,34.20
2023-05-20T03:05:16.015Z,34.22
2023-05-20T03:06:16.089Z,34.22
2023-05-20T03:07:16.133Z,34.16
2023-05-20T03:08:16.223Z,34.24
2023-05-20T03:09:16.266Z,34.21
2023-05-20T03:10:16.313Z,34.21
2023-05-20T03:11:16.392Z,34.21
2023-05-20T03:12:16.467Z,34.19
2023-05-20T03:13:16.527Z,34.17
2023-05-20T03:14:16.554Z,34.19
2023-05-20T03:15:16.658Z,34.21
2023-05-20T03:16:16.773Z,34.16
2023-05-20T03:17:16.756Z,34.21
2023-05-20T03:18:16.824Z,34.20
2023-05-20T03:19:16.913Z,34.21
2023-05-20T03:20:16.943Z,34.21
2023-05-20T03:21:16.974Z,34.14
2023-05-20T03:22:17.049Z,34.21
2023-05-20T03:23:17.096Z,34.22
2023-05-20T03:24:17.148Z,34.19
2023-05-20T03:25:17.244Z,34.26
2023-05-20T03:26:17.286Z,34.21
2023-05-20T03:27:17.328Z,34.19
2023-05-20T03:28:17.401Z,34.25
2023-05-20T03:29:17.471Z,34.21
2023-05-20T03:30:17.554Z,34.25
2023-05-20T03:31:17.722Z,34.24
2023-05-20T03:32:17.683Z,34.21
2023-05-20T03:33:17.714Z,34.23
2023-05-20T03:34:17.786Z,34.23
2023-05-20T03:35:17.884Z,34.20
2023-05-20T03:36:17.922Z,34.26
2023-05-20T03:37:17.991Z,34.18
2023-05-20T03:38:18.057Z,34.22
2023-05-20T03:39:18.103Z,34.21
2023-05-20T03:40:18.161Z,34.27
2023-05-20T03:41:18.214Z,34.23
2023-05-20T03:42:18.280Z,34.25
2023-05-20T03:43:18.358Z,34.23
2023-05-20T03:44:18.380Z,34.23
2023-05-20T03:45:18.500Z,34.23
2023-05-20T03:46:18.589Z,34.21
2023-05-20T03:47:18.583Z,34.26
2023-05-20T03:48:18.649Z,34.23
2023-05-20T03:49:18.705Z,34.19
2023-05-20T03:50:18.781Z,34.22
2023-05-20T03:51:18.819Z,34.22
2023-05-20T03:52:18.906Z,34.18
2023-05-20T03:53:18.959Z,34.22
2023-05-20T03:54:19.015Z,34.23
2023-05-20T03:55:19.049Z,34.19
2023-05-20T03:56:19.118Z,34.19
2023-05-20T03:57:19.213Z,34.19
2023-05-20T03:58:19.284Z,34.25
2023-05-20T03:59:19.336Z,34.21
2023-05-20T04:00:19.415Z,34.21
2023-05-20T04:01:19.443Z,34.21
2023-05-20T04:02:19.634Z,34.20
2023-05-20T04:03:19.775Z,34.25
2023-05-20T04:04:19.686Z,34.20
2023-05-20T04:05:19.728Z,34.21
2023-05-20T04:06:19.778Z,34.21
2023-05-20T04:07:19.845Z,34.16
2023-05-20T04:08:19.882Z,34.22
2023-05-20T04:09:19.942Z,34.18
2023-05-20T04:10:19.982Z,34.18
2023-05-20T04:11:20.058Z,34.21
2023-05-20T04:12:20.110Z,34.21
2023-05-20T04:13:20.173Z,34.20
2023-05-20T04:14:20.262Z,34.19
2023-05-20T04:15:20.260Z,34.20
2023-05-20T04:16:20.398Z,34.19
2023-05-20T04:17:20.401Z,34.19
2023-05-20T04:18:20.460Z,34.19
2023-05-20T04:19:20.538Z,34.21
2023-05-20T04:20:20.511Z,34.19
2023-05-20T04:21:20.577Z,34.20
2023-05-20T04:22:20.635Z,34.12
2023-05-20T04:23:20.642Z,34.16
2023-05-20T04:24:20.683Z,34.16
2023-05-20T04:25:20.741Z,34.22
2023-05-20T04:26:20.780Z,34.16
2023-05-20T04:27:20.846Z,34.20
2023-05-20T04:28:20.895Z,34.16
2023-05-20T04:29:20.952Z,34.19
2023-05-20T04:30:21.018Z,34.14
2023-05-20T04:31:21.099Z,34.15
2023-05-20T04:32:21.153Z,34.14
2023-05-20T04:33:21.160Z,34.20
2023-05-20T04:34:21.212Z,34.16
2023-05-20T04:35:21.290Z,34.21
2023-05-20T04:36:21.357Z,34.16
2023-05-20T04:37:21.405Z,34.16
2023-05-20T04:38:21.470Z,34.19
2023-05-20T04:39:21.484Z,34.17
2023-05-20T04:40:21.523Z,34.16
2023-05-20T04:41:21.567Z,34.13
2023-05-20T04:42:21.656Z,34.17
2023-05-20T04:43:21.689Z,34.20
2023-05-20T04:44:21.758Z,34.17
2023-05-20T04:45:21.809Z,34.16
2023-05-20T04:46:21.887Z,34.20
2023-05-20T04:47:21.881Z,34.19
2023-05-20T04:48:21.909Z,34.20
2023-05-20T04:49:21.983Z,34.19
2023-05-20T04:50:22.050Z,34.17
2023-05-20T04:51:22.126Z,34.17
2023-05-20T04:52:22.129Z,34.14
2023-05-20T04:53:22.218Z,34.19
2023-05-20T04:54:22.206Z,34.15
2023-05-20T04:55:22.284Z,34.13
2023-05-20T04:56:22.347Z,34.16
2023-05-20T04:57:22.392Z,34.17
2023-05-20T04:58:22.449Z,34.16
2023-05-20T04:59:22.490Z,34.16
2023-05-20T05:00:22.557Z,34.21
2023-05-20T05:01:22.647Z,34.14
2023-05-20T05:02:22.626Z,34.11
2023-05-20T05:03:22.682Z,34.16
2023-05-20T05:04:22.762Z,34.14
2023-05-20T05:05:22.782Z,34.15
2023-05-20T05:06:22.857Z,34.17
2023-05-20T05:07:22.947Z,34.12
2023-05-20T05:08:22.977Z,34.15
2023-05-20T05:09:23.029Z,34.11
2023-05-20T05:10:23.101Z,34.12
2023-05-20T05:11:23.165Z,34.17
2023-05-20T05:12:23.224Z,34.15
2023-05-20T05:13:23.249Z,34.16
2023-05-20T05:14:23.320Z,34.15
2023-05-20T05:15:23.378Z,34.19
2023-05-20T05:16:23.493Z,34.15
2023-05-20T05:17:23.515Z,34.16
2023-05-20T05:18:23.549Z,34.11
2023-05-20T05:19:23.750Z,34.10
2023-05-20T05:20:23.682Z,34.11
2023-05-20T05:21:23.728Z,34.15
2023-05-20T05:22:23.791Z,34.12
2023-05-20T05:23:23.828Z,34.10
2023-05-20T05:24:23.880Z,34.14
2023-05-20T05:25:23.954Z,34.13
2023-05-20T05:26:24.001Z,34.11
2023-05-20T05:27:24.096Z,34.12
2023-05-20T05:28:24.154Z,34.10
2023-05-20T05:29:24.203Z,34.07
2023-05-20T05:30:24.289Z,34.11
2023-05-20T05:31:24.286Z,34.10
2023-05-20T05:32:24.445Z,34.14
2023-05-20T05:33:24.488Z,34.11
2023-05-20T05:34:24.471Z,34.13
2023-05-20T05:35:24.528Z,34.10
2023-05-20T05:36:24.581Z,34.10
2023-05-20T05:37:24.674Z,34.10
2023-05-20T05:38:24.746Z,34.14
2023-05-20T05:39:24.797Z,34.10
2023-05-20T05:40:24.855Z,34.10
2023-05-20T05:41:24.905Z,34.10
2023-05-20T05:42:24.984Z,34.10
2023-05-20T05:43:25.006Z,34.06
2023-05-20T05:44:25.058Z,34.09
2023-05-20T05:45:25.111Z,34.05
2023-05-20T05:46:25.247Z,34.06
2023-05-20T05:47:25.335Z,34.05
2023-05-20T05:48:25.331Z,34.08
2023-05-20T05:49:25.400Z,34.10
2023-05-20T05:50:25.430Z,34.05
2023-05-20T05:51:25.492Z,34.08
2023-05-20T05:52:25.556Z,34.02
2023-05-20T05:53:25.617Z,34.05
2023-05-20T05:54:25.772Z,34.09
2023-05-20T05:55:25.790Z,34.04
2023-05-20T05:56:25.812Z,34.10
2023-05-20T05:57:25.932Z,34.06
2023-05-20T05:58:25.977Z,34.08
2023-05-20T05:59:26.059Z,34.06
2023-05-20T06:00:26.092Z,34.12
2023-05-20T06:01:26.181Z,34.08
2023-05-20T06:02:26.277Z,34.05
2023-05-20T06:03:26.383Z,34.08
2023-05-20T06:04:26.528Z,34.06
2023-05-20T06:05:29.099Z,34.05
2023-05-20T06:06:26.360Z,34.09
2023-05-20T06:07:26.395Z,34.08
2023-05-20T06:08:26.379Z,34.09
2023-05-20T06:09:26.370Z,34.07
2023-05-20T06:10:26.361Z,34.08
2023-05-20T06:11:26.351Z,34.07
2023-05-20T06:12:26.367Z,34.06
2023-05-20T06:13:26.316Z,34.04
2023-05-20T06:14:26.331Z,34.09
2023-05-20T06:15:26.304Z,34.08
2023-05-20T06:16:27.303Z,34.06
2023-05-20T06:17:26.341Z,33.99
2023-05-20T06:18:26.287Z,34.04
2023-05-20T06:19:26.321Z,34.05
2023-05-20T06:20:26.291Z,34.10
2023-05-20T06:21:26.277Z,34.03
2023-05-20T06:22:26.267Z,34.05
2023-05-20T06:23:26.285Z,34.08
2023-05-20T06:24:26.260Z,34.08
2023-05-20T06:25:26.250Z,34.06
2023-05-20T06:26:26.260Z,34.09
2023-05-20T06:27:26.222Z,34.05
2023-05-20T06:28:26.238Z,34.04
2023-05-20T06:29:26.236Z,34.07
2023-05-20T06:30:26.190Z,34.07
2023-05-20T06:31:26.351Z,34.09
2023-05-20T06:32:26.219Z,34.10
2023-05-20T06:33:26.261Z,34.10
2023-05-20T06:34:26.194Z,34.08
2023-05-20T06:35:26.180Z,34.07
2023-05-20T06:36:26.184Z,34.04
2023-05-20T06:37:26.213Z,34.07
2023-05-20T06:38:26.221Z,34.10
2023-05-20T06:39:26.256Z,34.08
2023-05-20T06:40:26.372Z,34.08
2023-05-20T06:41:26.381Z,34.08
2023-05-20T06:42:26.427Z,34.10
2023-05-20T06:43:26.461Z,34.06
2023-05-20T06:44:26.515Z,34.05
2023-05-20T06:45:26.611Z,34.03
2023-05-20T06:46:26.744Z,34.01
2023-05-20T06:47:26.726Z,34.05
2023-05-20T06:48:26.788Z,34.00
2023-05-20T06:49:26.818Z,34.04
2023-05-20T06:50:26.930Z,34.01
2023-05-20T06:51:26.937Z,33.97
2023-05-20T06:52:26.992Z,34.00
2023-05-20T06:53:27.041Z,33.95
2023-05-20T06:54:27.108Z,34.03
2023-05-20T06:55:27.177Z,33.99
2023-05-20T06:56:27.246Z,33.94
2023-05-20T06:57:27.276Z,33.95
2023-05-20T06:58:27.308Z,33.97
2023-05-20T06:59:27.372Z,33.97
2023-05-20T07:00:27.448Z,34.02
2023-05-20T07:01:27.521Z,34.05
2023-05-20T07:02:27.553Z,33.95
2023-05-20T07:03:27.631Z,33.95
2023-05-20T07:04:27.624Z,33.93
2023-05-20T07:05:27.699Z,33.94
2023-05-20T07:06:27.717Z,33.98
2023-05-20T07:07:27.773Z,33.91
2023-05-20T07:08:27.856Z,33.94
2023-05-20T07:09:27.880Z,33.90
2023-05-20T07:10:27.940Z,33.89
2023-05-20T07:11:27.981Z,33.93
2023-05-20T07:12:28.044Z,33.96
2023-05-20T07:13:28.071Z,33.88
2023-05-20T07:14:28.122Z,33.92
2023-05-20T07:15:28.211Z,33.87
2023-05-20T07:16:28.251Z,33.91
2023-05-20T07:17:28.305Z,33.91
2023-05-20T07:18:28.347Z,33.92
2023-05-20T07:19:28.454Z,33.92
2023-05-20T07:20:28.404Z,33.88
2023-05-20T07:21:28.464Z,33.87
2023-05-20T07:22:28.524Z,33.87
2023-05-20T07:23:28.570Z,33.87
2023-05-20T07:24:28.619Z,33.87
2023-05-20T07:25:28.668Z,33.92
2023-05-20T07:26:28.700Z,33.87
2023-05-20T07:27:28.744Z,33.84
2023-05-20T07:28:28.792Z,33.79
2023-05-20T07:29:28.825Z,33.84
2023-05-20T07:30:28.841Z,33.83
2023-05-20T07:31:28.898Z,33.83
2023-05-20T07:32:28.998Z,33.82
2023-05-20T07:33:28.939Z,33.79
2023-05-20T07:34:28.970Z,33.81
2023-05-20T07:35:29.020Z,33.78
2023-05-20T07:36:29.059Z,33.76
2023-05-20T07:37:29.094Z,33.77
2023-05-20T07:38:29.162Z,33.77
2023-05-20T07:39:29.193Z,33.77
2023-05-20T07:40:29.217Z,33.73
2023-05-20T07:41:29.252Z,33.73
2023-05-20T07:42:29.693Z,33.79
2023-05-20T07:43:29.361Z,33.77
2023-05-20T07:44:29.360Z,33.74
2023-05-20T07:45:29.398Z,33.78
2023-05-20T07:46:29.560Z,33.76
2023-05-20T07:47:29.479Z,33.77
2023-05-20T07:48:29.530Z,33.77
2023-05-20T07:49:29.560Z,33.74
2023-05-20T07:50:29.604Z,33.74
2023-05-20T07:51:29.617Z,33.72
2023-05-20T07:52:31.006Z,33.76
2023-05-20T07:53:29.636Z,33.76
2023-05-20T07:54:29.659Z,33.75
2023-05-20T07:55:29.626Z,33.68
2023-05-20T07:56:29.634Z,33.73
2023-05-20T07:57:29.637Z,33.73
2023-05-20T07:58:29.611Z,33.73
2023-05-20T07:59:29.620Z,33.68
2023-05-20T08:00:29.585Z,33.70
2023-05-20T08:01:29.565Z,33.70
2023-05-20T08:02:29.651Z,33.68
2023-05-20T08:03:29.715Z,33.70
2023-05-20T08:04:29.649Z,33.71
2023-05-20T08:05:29.651Z,33.71
2023-05-20T08:06:30.026Z,33.62
2023-05-20T08:07:29.564Z,33.63
2023-05-20T08:08:29.554Z,33.65
2023-05-20T08:09:29.554Z,33.65
2023-05-20T08:10:29.527Z,33.69
2023-05-20T08:11:29.513Z,33.63
2023-05-20T08:12:29.507Z,33.69
2023-05-20T08:13:29.524Z,33.59
2023-05-20T08:14:29.526Z,33.66
2023-05-20T08:15:29.506Z,33.60
2023-05-20T08:16:29.480Z,33.65
2023-05-20T08:17:29.496Z,33.63
2023-05-20T08:18:29.472Z,33.60
2023-05-20T08:19:29.580Z,33.66
2023-05-20T08:20:29.440Z,33.65
2023-05-20T08:21:29.529Z,33.67
2023-05-20T08:22:29.460Z,33.61
2023-05-20T08:23:29.427Z,33.61
2023-05-20T08:24:29.430Z,33.59
2023-05-20T08:25:29.429Z,33.59
2023-05-20T08:26:29.407Z,33.65
2023-05-20T08:27:29.404Z,33.58
2023-05-20T08:28:29.405Z,33.62
2023-05-20T08:29:29.408Z,33.62
2023-05-20T08:30:29.421Z,33.59
2023-05-20T08:31:29.574Z,33.65
2023-05-20T08:32:29.554Z,33.65
2023-05-20T08:33:29.547Z,33.58
2023-05-20T08:34:29.569Z,33.62
2023-05-20T08:35:29.627Z,33.64
2023-05-20T08:36:29.654Z,33.58
2023-05-20T08:37:29.684Z,33.64
2023-05-20T08:38:29.723Z,33.62
2023-05-20T08:39:29.737Z,33.58
2023-05-20T08:40:29.747Z,33.60
2023-05-20T08:41:29.783Z,33.58
2023-05-20T08:42:29.810Z,33.58
2023-05-20T08:43:29.869Z,33.51
2023-05-20T08:44:29.890Z,33.56
2023-05-20T08:45:29.892Z,33.55
2023-05-20T08:46:29.985Z,33.56
2023-05-20T08:47:30.007Z,33.57
2023-05-20T08:48:30.030Z,33.54
2023-05-20T08:49:30.037Z,33.54
2023-05-20T08:50:30.051Z,33.53
2023-05-20T08:51:30.071Z,33.58
2023-05-20T08:52:30.096Z,33.53
2023-05-20T08:53:30.143Z,33.60
2023-05-20T08:54:30.160Z,33.56
2023-05-20T08:55:30.178Z,33.60
2023-05-20T08:56:31.140Z,33.56
2023-05-20T08:57:30.245Z,33.56
2023-05-20T08:58:30.264Z,33.59
2023-05-20T08:59:30.268Z,33.54
2023-05-20T09:00:30.330Z,33.51
2023-05-20T09:01:30.316Z,33.50
2023-05-20T09:02:30.436Z,33.54
2023-05-20T09:03:30.457Z,33.50
2023-05-20T09:04:30.427Z,33.50
2023-05-20T09:05:30.418Z,33.52
2023-05-20T09:06:30.452Z,33.48
2023-05-20T09:07:30.482Z,33.48
2023-05-20T09:08:30.502Z,33.53
2023-05-20T09:09:30.486Z,33.48
2023-05-20T09:10:30.509Z,33.49
2023-05-20T09:11:30.548Z,33.49
2023-05-20T09:12:30.598Z,33.51
2023-05-20T09:13:30.590Z,33.48
2023-05-20T09:14:30.612Z,33.50
2023-05-20T09:15:30.647Z,33.46
2023-05-20T09:16:30.680Z,33.51
2023-05-20T09:17:30.892Z,33.48
2023-05-20T09:18:30.723Z,33.48
2023-05-20T09:19:30.774Z,33.44
2023-05-20T09:20:30.741Z,33.49
2023-05-20T09:21:30.756Z,33.48
2023-05-20T09:22:30.756Z,33.48
2023-05-20T09:23:30.798Z,33.41
2023-05-20T09:24:30.829Z,33.44
2023-05-20T09:25:30.872Z,33.42
2023-05-20T09:26:30.845Z,33.42
2023-05-20T09:27:30.862Z,33.44
2023-05-20T09:28:30.902Z,33.41
2023-05-20T09:29:30.917Z,33.41
2023-05-20T09:30:30.916Z,33.41
2023-05-20T09:31:30.983Z,33.40
2023-05-20T09:32:30.984Z,33.37
2023-05-20T09:33:30.979Z,33.36
2023-05-20T09:34:31.003Z,33.35
2023-05-20T09:35:30.998Z,33.39
2023-05-20T09:36:31.022Z,33.33
2023-05-20T09:37:31.056Z,33.38
2023-05-20T09:38:31.049Z,33.36
2023-05-20T09:39:31.072Z,33.33
2023-05-20T09:40:31.078Z,33.36
2023-05-20T09:41:31.078Z,33.33
2023-05-20T09:42:31.117Z,33.28
2023-05-20T09:43:31.170Z,33.36
2023-05-20T09:44:31.133Z,33.35
2023-05-20T09:45:31.140Z,33.35
2023-05-20T09:46:31.220Z,33.36
2023-05-20T09:47:31.173Z,33.35
2023-05-20T09:48:34.164Z,33.33
2023-05-20T09:49:31.164Z,33.34
2023-05-20T09:50:31.173Z,33.33
2023-05-20T09:51:31.147Z,33.36
2023-05-20T09:52:31.110Z,33.39
2023-05-20T09:53:31.123Z,33.38
2023-05-20T09:54:31.124Z,33.36
2023-05-20T09:55:31.197Z,33.34
2023-05-20T09:56:31.135Z,33.29
2023-05-20T09:57:31.092Z,33.35
2023-05-20T09:58:31.112Z,33.36
2023-05-20T09:59:31.098Z,33.32
2023-05-20T10:00:31.096Z,33.29
2023-05-20T10:01:31.105Z,33.31
2023-05-20T10:02:31.211Z,33.35
2023-05-20T10:03:31.225Z,33.28
2023-05-20T10:04:31.049Z,33.36
2023-05-20T10:05:31.142Z,33.28
2023-05-20T10:06:31.046Z,33.34
2023-05-20T10:07:41.924Z,33.29
2023-05-20T10:08:32.052Z,33.22
2023-05-20T10:09:31.027Z,33.32
2023-05-20T10:10:31.043Z,33.32
2023-05-20T10:11:31.024Z,33.32
2023-05-20T10:12:30.982Z,33.29
2023-05-20T10:13:30.986Z,33.31
2023-05-20T10:14:30.996Z,33.34
2023-05-20T10:15:30.991Z,33.28
2023-05-20T10:16:31.097Z,33.31
2023-05-20T10:17:30.982Z,33.31
2023-05-20T10:18:30.980Z,33.32
2023-05-20T10:19:31.282Z,33.29
2023-05-20T10:20:30.974Z,33.29
2023-05-20T10:21:30.915Z,33.34
2023-05-20T10:22:30.901Z,33.32
2023-05-20T10:23:30.982Z,33.32
2023-05-20T10:24:30.902Z,33.38
2023-05-20T10:25:30.902Z,33.28
2023-05-20T10:26:30.889Z,33.37
2023-05-20T10:27:30.897Z,33.31
2023-05-20T10:28:30.901Z,33.29
2023-05-20T10:29:30.865Z,33.30
2023-05-20T10:30:30.880Z,33.30
2023-05-20T10:31:30.857Z,33.27
2023-05-20T10:32:30.961Z,33.27
2023-05-20T10:33:30.885Z,33.27
2023-05-20T10:34:30.844Z,33.26
2023-05-20T10:35:30.875Z,33.24
2023-05-20T10:36:30.816Z,33.26
2023-05-20T10:37:30.804Z,33.20
2023-05-20T10:38:30.830Z,33.20
2023-05-20T10:39:30.805Z,33.14
2023-05-20T10:40:30.813Z,33.18
2023-05-20T10:41:30.792Z,33.17
2023-05-20T10:42:30.809Z,33.13
2023-05-20T10:43:30.800Z,33.11
2023-05-20T10:44:30.780Z,33.08
2023-05-20T10:45:30.756Z,33.10
2023-05-20T10:46:36.688Z,33.08
2023-05-20T10:47:31.786Z,33.08
2023-05-20T10:48:30.870Z,33.04
2023-05-20T10:49:30.741Z,33.03
2023-05-20T10:50:30.760Z,33.07
2023-05-20T10:51:30.732Z,33.05
2023-05-20T10:52:30.727Z,33.02
2023-05-20T10:53:34.068Z,32.98
2023-05-20T10:54:30.725Z,33.02
2023-05-20T10:55:30.718Z,32.97
2023-05-20T10:56:30.706Z,32.97
2023-05-20T10:57:30.701Z,33.00
2023-05-20T10:58:30.700Z,32.99
2023-05-20T10:59:30.683Z,33.03
2023-05-20T11:00:30.677Z,32.99
2023-05-20T11:01:30.704Z,32.96
2023-05-20T11:02:30.745Z,33.01
2023-05-20T11:03:30.664Z,32.98
2023-05-20T11:04:30.645Z,32.98
2023-05-20T11:05:30.642Z,32.95
2023-05-20T11:06:30.637Z,32.95
2023-05-20T11:07:30.601Z,32.88
2023-05-20T11:08:30.641Z,32.91
2023-05-20T11:09:30.597Z,32.89
2023-05-20T11:10:30.591Z,32.92
2023-05-20T11:11:30.614Z,32.94
2023-05-20T11:12:30.582Z,32.89
2023-05-20T11:13:30.587Z,32.94
2023-05-20T11:14:30.564Z,32.89
2023-05-20T11:15:30.556Z,32.91
2023-05-20T11:16:30.587Z,32.90
2023-05-20T11:17:30.621Z,32.90
2023-05-20T11:18:30.543Z,32.93
2023-05-20T11:19:30.658Z,32.89
2023-05-20T11:20:30.523Z,32.87
2023-05-20T11:21:30.521Z,32.93
2023-05-20T11:22:30.533Z,32.87
2023-05-20T11:23:30.523Z,32.89
2023-05-20T11:24:30.510Z,32.87
2023-05-20T11:25:30.509Z,32.87
2023-05-20T11:26:30.528Z,32.82
2023-05-20T11:27:30.480Z,32.83
2023-05-20T11:28:30.480Z,32.82
2023-05-20T11:29:30.485Z,32.83
2023-05-20T11:30:30.495Z,32.83
2023-05-20T11:31:30.444Z,32.85
2023-05-20T11:32:30.557Z,32.79
2023-05-20T11:33:30.450Z,32.79
2023-05-20T11:34:31.940Z,32.80
2023-05-20T11:35:30.437Z,32.84
2023-05-20T11:36:30.472Z,32.79
2023-05-20T11:37:30.441Z,32.75
2023-05-20T11:38:30.427Z,32.76
2023-05-20T11:39:30.446Z,32.79
2023-05-20T11:40:38.895Z,32.76
2023-05-20T11:41:31.419Z,32.77
2023-05-20T11:42:30.413Z,32.70
2023-05-20T11:43:30.350Z,32.74
2023-05-20T11:44:30.372Z,32.70
2023-05-20T11:45:30.351Z,32.67
2023-05-20T11:46:30.451Z,32.67
2023-05-20T11:47:30.339Z,32.73
2023-05-20T11:48:30.331Z,32.74
2023-05-20T11:49:30.340Z,32.73
2023-05-20T11:50:30.329Z,32.71
2023-05-20T11:51:30.380Z,32.70
2023-05-20T11:52:30.336Z,32.67
2023-05-20T11:53:30.338Z,32.64
2023-05-20T11:54:30.307Z,32.66
2023-05-20T11:55:30.271Z,32.70
2023-05-20T11:56:30.280Z,32.68
2023-05-20T11:57:30.266Z,32.68
2023-05-20T11:58:30.305Z,32.64
2023-05-20T11:59:30.305Z,32.62
2023-05-20T12:00:36.250Z,32.66
2023-05-20T12:01:31.265Z,32.68
2023-05-20T12:02:30.318Z,32.67
2023-05-20T12:03:30.295Z,32.69
2023-05-20T12:04:30.259Z,32.68
2023-05-20T12:05:30.245Z,32.61
2023-05-20T12:06:30.217Z,32.65
2023-05-20T12:07:30.229Z,32.61
2023-05-20T12:08:30.194Z,32.59
2023-05-20T12:09:30.189Z,32.55
2023-05-20T12:10:30.192Z,32.58
2023-05-20T12:11:30.168Z,32.58
2023-05-20T12:12:30.862Z,32.51
2023-05-20T12:13:30.156Z,32.55
2023-05-20T12:14:30.210Z,32.52
2023-05-20T12:15:30.133Z,32.55
2023-05-20T12:16:30.222Z,32.52
2023-05-20T12:17:30.162Z,32.59
2023-05-20T12:18:30.139Z,32.53
2023-05-20T12:19:30.226Z,32.56
2023-05-20T12:20:30.157Z,32.59
2023-05-20T12:21:30.114Z,32.59
2023-05-20T12:22:30.114Z,32.62
2023-05-20T12:23:30.119Z,32.58
2023-05-20T12:24:30.123Z,32.58
2023-05-20T12:25:30.095Z,32.55
2023-05-20T12:26:30.180Z,32.52
2023-05-20T12:27:30.098Z,32.55
2023-05-20T12:28:30.068Z,32.58
2023-05-20T12:29:30.073Z,32.59
2023-05-20T12:30:30.054Z,32.58
2023-05-20T12:31:31.841Z,32.52
2023-05-20T12:32:30.124Z,32.56
2023-05-20T12:33:30.062Z,32.59
2023-05-20T12:34:30.050Z,32.52
2023-05-20T12:35:30.048Z,32.47
2023-05-20T12:36:30.044Z,32.56
2023-05-20T12:37:30.019Z,32.51
2023-05-20T12:38:29.992Z,32.48
2023-05-20T12:39:29.998Z,32.51
2023-05-20T12:40:30.028Z,32.48
2023-05-20T12:41:29.995Z,32.41
2023-05-20T12:42:30.003Z,32.49
2023-05-20T12:43:29.968Z,32.50
2023-05-20T12:44:29.984Z,32.45
2023-05-20T12:45:29.960Z,32.47
2023-05-20T12:46:30.015Z,32.45
2023-05-20T12:47:29.978Z,32.50
2023-05-20T12:48:29.921Z,32.48
2023-05-20T12:49:29.956Z,32.52
2023-05-20T12:50:29.916Z,32.50
2023-05-20T12:51:29.927Z,32.49
2023-05-20T12:52:29.918Z,32.52
2023-05-20T12:53:29.888Z,32.50